createdAt,value
2023-05-13T00:00:54.490Z,12.98
2023-05-13T00:03:25.115Z,12.95
2023-05-13T00:05:52.589Z,13.04
2023-05-13T00:08:20.150Z,12.92
2023-05-13T00:10:48.572Z,12.84
2023-05-13T00:13:15.395Z,12.71
2023-05-13T00:15:45.120Z,12.76
2023-05-13T00:18:21.203Z,12.75
2023-05-13T00:20:47.982Z,12.80
2023-05-13T00:23:14.681Z,12.76
2023-05-13T00:25:46.723Z,12.59
2023-05-13T00:28:17.016Z,12.70
2023-05-13T00:30:47.071Z,12.74
2023-05-13T00:33:15.157Z,12.66
2023-05-13T00:35:43.980Z,12.57
2023-05-13T00:38:11.694Z,12.55
2023-05-13T00:40:39.944Z,12.50
2023-05-13T00:43:09.679Z,12.50
2023-05-13T00:45:38.470Z,12.43
2023-05-13T00:48:08.487Z,12.41
2023-05-13T00:50:34.964Z,12.45
2023-05-13T00:53:02.485Z,12.33
2023-05-13T00:55:28.972Z,12.27
2023-05-13T00:58:06.262Z,12.12
2023-05-13T01:00:32.798Z,12.16
2023-05-13T01:03:57.510Z,11.92
2023-05-13T01:06:29.937Z,11.79
2023-05-13T01:09:16.168Z,11.89
2023-05-13T01:11:44.749Z,11.91
2023-05-13T01:14:29.290Z,11.82
2023-05-13T01:17:00.352Z,11.78
2023-05-13T01:19:53.036Z,11.82
2023-05-13T01:22:21.568Z,11.87
2023-05-13T01:24:50.958Z,11.89
2023-05-13T01:27:18.599Z,11.93
2023-05-13T01:29:47.531Z,11.98
2023-05-13T01:32:18.097Z,11.98
2023-05-13T01:34:46.933Z,12.01
2023-05-13T01:37:14.192Z,11.84
2023-05-13T01:39:44.420Z,11.76
2023-05-13T01:42:13.807Z,11.74
2023-05-13T01:44:49.164Z,11.66
2023-05-13T01:47:17.344Z,11.60
2023-05-13T01:49:45.432Z,11.66
2023-05-13T01:52:11.914Z,11.61
2023-05-13T01:54:43.399Z,11.58
2023-05-13T01:57:11.938Z,11.45
2023-05-13T01:59:38.712Z,11.49
2023-05-13T02:02:13.013Z,11.47
2023-05-13T02:04:42.165Z,11.44
2023-05-13T02:07:11.936Z,11.41
2023-05-13T02:09:39.284Z,11.48
2023-05-13T02:12:08.458Z,11.50
2023-05-13T02:14:41.358Z,11.63
2023-05-13T02:17:08.161Z,11.58
2023-05-13T02:19:36.184Z,11.49
2023-05-13T02:22:03.306Z,11.39
2023-05-13T02:24:34.444Z,11.23
2023-05-13T02:27:04.945Z,11.32
2023-05-13T02:29:31.282Z,11.18
2023-05-13T02:31:57.918Z,11.04
2023-05-13T02:34:26.981Z,11.07
2023-05-13T02:36:53.780Z,11.02
2023-05-13T02:39:22.232Z,11.06
2023-05-13T02:41:48.961Z,10.75
2023-05-13T02:44:16.632Z,10.77
2023-05-13T02:46:44.754Z,10.83
2023-05-13T02:49:13.432Z,10.80
2023-05-13T02:51:44.686Z,10.75
2023-05-13T02:56:54.062Z,10.79
2023-05-13T02:59:21.072Z,10.84
2023-05-13T03:01:53.322Z,10.76
2023-05-13T03:04:19.826Z,10.81
2023-05-13T03:06:47.465Z,10.74
2023-05-13T03:09:19.474Z,10.64
2023-05-13T03:11:47.903Z,10.60
2023-05-13T03:14:17.116Z,10.60
2023-05-13T03:16:44.918Z,10.57
2023-05-13T03:19:14.451Z,10.54
2023-05-13T03:21:41.014Z,10.60
2023-05-13T03:24:13.373Z,10.49
2023-05-13T03:26:41.328Z,10.48
2023-05-13T03:29:11.079Z,10.46
2023-05-13T03:31:39.697Z,10.54
2023-05-13T03:34:07.844Z,10.72
2023-05-13T03:36:37.029Z,10.76
2023-05-13T03:39:03.583Z,10.90
2023-05-13T03:41:30.439Z,10.89
2023-05-13T03:43:59.166Z,10.73
2023-05-13T03:46:27.424Z,10.64
2023-05-13T03:48:57.632Z,10.82
2023-05-13T03:51:25.032Z,10.71
2023-05-13T03:53:53.856Z,10.71
2023-05-13T03:56:22.618Z,10.81
2023-05-13T03:58:50.708Z,10.75
2023-05-13T04:01:17.390Z,10.83
2023-05-13T04:03:46.482Z,10.94
2023-05-13T04:06:14.557Z,10.78
2023-05-13T04:08:41.174Z,10.94
2023-05-13T04:11:13.604Z,10.83
2023-05-13T04:13:41.062Z,10.78
2023-05-13T04:16:10.147Z,10.85
2023-05-13T04:18:37.163Z,11.02
2023-05-13T04:21:10.189Z,11.07
2023-05-13T04:23:36.717Z,11.21
2023-05-13T04:26:04.525Z,11.37
2023-05-13T04:28:32.027Z,11.43
2023-05-13T04:31:00.396Z,11.50
2023-05-13T04:33:27.225Z,11.59
2023-05-13T04:35:53.780Z,11.53
2023-05-13T04:38:23.313Z,11.56
2023-05-13T04:40:51.556Z,11.36
2023-05-13T04:43:22.559Z,11.18
2023-05-13T04:45:49.272Z,11.37
2023-05-13T04:48:17.273Z,11.29
2023-05-13T04:50:49.484Z,11.35
2023-05-13T04:53:16.941Z,11.24
2023-05-13T04:55:47.562Z,11.34
2023-05-13T04:58:14.656Z,11.42
2023-05-13T05:00:45.336Z,11.68
2023-05-13T05:03:12.018Z,12.05
2023-05-13T05:05:39.965Z,12.42
2023-05-13T05:08:10.621Z,12.93
2023-05-13T05:10:38.373Z,13.46
2023-05-13T05:13:06.326Z,13.81
2023-05-13T05:15:32.801Z,13.98
2023-05-13T05:18:02.534Z,14.02
2023-05-13T05:20:29.508Z,14.10
2023-05-13T05:22:56.062Z,14.33
2023-05-13T05:25:22.626Z,14.47
2023-05-13T05:27:51.982Z,14.64
2023-05-13T05:30:19.553Z,14.88
2023-05-13T05:32:46.183Z,14.83
2023-05-13T05:35:15.753Z,14.62
2023-05-13T05:37:43.010Z,14.56
2023-05-13T05:40:11.278Z,14.48
2023-05-13T05:42:40.882Z,14.60
2023-05-13T05:45:09.327Z,14.47
2023-05-13T05:47:40.274Z,14.49
2023-05-13T05:50:09.250Z,14.67
2023-05-13T05:52:36.007Z,14.65
2023-05-13T05:55:03.467Z,14.71
2023-05-13T05:57:30.514Z,14.77
2023-05-13T05:59:56.981Z,15.08
2023-05-13T06:02:23.682Z,15.38
2023-05-13T06:04:51.553Z,15.31
2023-05-13T06:07:24.820Z,15.42
2023-05-13T06:09:52.314Z,15.68
2023-05-13T06:12:20.761Z,15.92
2023-05-13T06:14:52.649Z,15.76
2023-05-13T06:17:21.268Z,15.93
2023-05-13T06:19:51.625Z,16.14
2023-05-13T06:22:20.094Z,16.28
2023-05-13T06:24:47.883Z,16.24
2023-05-13T06:27:16.416Z,16.05
2023-05-13T06:29:45.510Z,16.19
2023-05-13T06:32:12.408Z,16.43
2023-05-13T06:34:45.838Z,16.34
2023-05-13T06:37:23.714Z,16.46
2023-05-13T06:39:51.402Z,16.60
2023-05-13T06:42:18.194Z,16.60
2023-05-13T06:44:45.938Z,16.44
2023-05-13T06:47:16.023Z,16.64
2023-05-13T06:49:45.072Z,16.53
2023-05-13T06:52:12.700Z,16.56
2023-05-13T06:54:40.834Z,16.79
2023-05-13T06:57:08.812Z,17.00
2023-05-13T06:59:38.535Z,17.07
2023-05-13T07:02:09.947Z,17.02
2023-05-13T07:04:38.367Z,16.68
2023-05-13T07:07:07.511Z,16.35
2023-05-13T07:09:35.217Z,16.02
2023-05-13T07:12:03.651Z,15.69
2023-05-13T07:14:30.219Z,15.50
2023-05-13T07:17:01.075Z,15.39
2023-05-13T07:19:28.166Z,15.49
2023-05-13T07:24:36.461Z,15.80
2023-05-13T07:27:04.921Z,16.23
2023-05-13T07:29:32.383Z,16.47
2023-05-13T07:32:03.551Z,17.11
2023-05-13T07:34:30.016Z,17.70
2023-05-13T07:37:00.786Z,18.33
2023-05-13T07:39:29.540Z,18.71
2023-05-13T07:41:56.347Z,18.46
2023-05-13T07:44:22.831Z,18.54
2023-05-13T07:46:51.431Z,18.73
2023-05-13T07:49:20.284Z,18.21
2023-05-13T07:51:49.984Z,18.56
2023-05-13T07:54:17.016Z,18.51
2023-05-13T07:56:46.549Z,18.45
2023-05-13T07:59:14.506Z,18.79
2023-05-13T08:01:43.741Z,18.80
2023-05-13T08:04:10.433Z,18.69
2023-05-13T08:06:39.643Z,18.78
2023-05-13T08:09:09.605Z,19.20
2023-05-13T08:11:41.079Z,19.43
2023-05-13T08:14:07.905Z,19.16
2023-05-13T08:16:37.637Z,19.57
2023-05-13T08:19:05.768Z,20.09
2023-05-13T08:21:33.879Z,20.43
2023-05-13T08:24:04.322Z,20.55
2023-05-13T08:26:33.597Z,20.70
2023-05-13T08:29:00.312Z,20.48
2023-05-13T08:31:27.418Z,20.09
2023-05-13T08:34:06.047Z,20.04
2023-05-13T08:36:34.999Z,19.87
2023-05-13T08:39:23.863Z,20.22
2023-05-13T08:41:50.432Z,20.24
2023-05-13T08:44:18.864Z,19.88
2023-05-13T08:47:19.863Z,20.09
2023-05-13T08:49:48.322Z,20.37
2023-05-13T08:52:15.060Z,20.43
2023-05-13T08:54:46.133Z,20.67
2023-05-13T08:57:15.559Z,20.39
2023-05-13T08:59:42.037Z,20.34
2023-05-13T09:02:11.493Z,20.78
2023-05-13T09:04:41.049Z,20.88
2023-05-13T09:07:08.094Z,20.69
2023-05-13T09:09:35.368Z,20.51
2023-05-13T09:12:01.920Z,20.48
2023-05-13T09:14:31.376Z,20.72
2023-05-13T09:16:59.397Z,20.91
2023-05-13T09:19:26.318Z,20.62
2023-05-13T09:21:54.187Z,20.80
2023-05-13T09:24:21.755Z,21.11
2023-05-13T09:26:52.485Z,21.24
2023-05-13T09:29:26.186Z,21.35
2023-05-13T09:31:56.627Z,21.33
2023-05-13T09:34:35.875Z,20.84
2023-05-13T09:37:09.924Z,20.88
2023-05-13T09:39:46.163Z,21.01
2023-05-13T09:42:20.658Z,21.51
2023-05-13T09:44:51.271Z,21.08
2023-05-13T09:47:20.031Z,21.21
2023-05-13T09:50:00.467Z,21.00
2023-05-13T09:52:50.320Z,21.17
2023-05-13T09:55:18.533Z,21.26
2023-05-13T09:57:47.809Z,21.24
2023-05-13T10:00:24.721Z,21.25
2023-05-13T10:02:56.101Z,21.25
2023-05-13T10:05:22.871Z,21.46
2023-05-13T10:07:53.282Z,21.64
2023-05-13T10:10:19.953Z,21.83
2023-05-13T10:12:48.501Z,21.28
2023-05-13T10:15:17.031Z,21.52
2023-05-13T10:17:45.117Z,21.60
2023-05-13T10:20:13.322Z,21.57
2023-05-13T10:22:39.828Z,21.22
2023-05-13T10:25:08.823Z,21.34
2023-05-13T10:27:37.496Z,21.37
2023-05-13T10:30:10.088Z,21.82
2023-05-13T10:32:39.150Z,22.10
2023-05-13T10:35:21.340Z,22.56
2023-05-13T10:38:03.706Z,22.58
2023-05-13T10:40:48.364Z,22.64
2023-05-13T10:43:27.005Z,22.15
2023-05-13T10:46:05.220Z,22.36
2023-05-13T10:48:51.290Z,22.74
2023-05-13T10:51:18.432Z,22.25
2023-05-13T10:53:52.704Z,22.41
2023-05-13T10:56:23.057Z,22.77
2023-05-13T10:59:03.421Z,22.29
2023-05-13T11:01:39.248Z,22.66
2023-05-13T11:04:06.069Z,22.62
2023-05-13T11:06:37.202Z,22.98
2023-05-13T11:09:34.776Z,23.36
2023-05-13T11:12:05.119Z,22.73
2023-05-13T11:14:32.630Z,22.03
2023-05-13T11:17:12.499Z,22.48
2023-05-13T11:19:49.908Z,22.75
2023-05-13T11:22:20.739Z,22.73
2023-05-13T11:25:10.046Z,22.34
2023-05-13T11:27:40.405Z,22.81
2023-05-13T11:30:09.423Z,22.19
2023-05-13T11:32:59.715Z,22.73
2023-05-13T11:35:30.449Z,22.34
2023-05-13T11:38:00.242Z,22.57
2023-05-13T11:40:34.949Z,22.82
2023-05-13T11:43:01.697Z,22.70
2023-05-13T11:45:30.105Z,22.65
2023-05-13T11:47:57.500Z,22.56
2023-05-13T11:50:30.830Z,22.89
2023-05-13T11:53:06.331Z,23.51
2023-05-13T11:55:36.511Z,23.19
2023-05-13T11:58:05.245Z,23.52
2023-05-13T12:00:35.459Z,23.83
2023-05-13T12:03:09.109Z,23.67
2023-05-13T12:05:48.858Z,22.83
2023-05-13T12:08:16.806Z,23.45
2023-05-13T12:10:46.399Z,23.60
2023-05-13T12:13:14.468Z,23.80
2023-05-13T12:15:46.558Z,23.59
2023-05-13T12:18:16.909Z,22.43
2023-05-13T12:20:43.626Z,22.41
2023-05-13T12:23:14.570Z,22.58
2023-05-13T12:25:45.537Z,22.74
2023-05-13T12:28:27.020Z,23.11
2023-05-13T12:30:57.587Z,22.97
2023-05-13T12:33:27.685Z,23.21
2023-05-13T12:35:54.636Z,23.23
2023-05-13T12:38:22.510Z,23.17
2023-05-13T12:40:52.413Z,23.38
2023-05-13T12:43:20.118Z,23.75
2023-05-13T12:45:47.290Z,23.17
2023-05-13T12:48:14.553Z,23.33
2023-05-13T12:50:41.081Z,23.79
2023-05-13T12:53:11.803Z,23.71
2023-05-13T12:55:39.951Z,23.39
2023-05-13T12:58:07.956Z,23.42
2023-05-13T13:00:35.777Z,23.36
2023-05-13T13:03:02.865Z,23.59
2023-05-13T13:05:29.366Z,24.08
2023-05-13T13:07:57.400Z,24.75
2023-05-13T13:10:29.251Z,25.36
2023-05-13T13:12:56.226Z,24.75
2023-05-13T13:15:25.060Z,23.27
2023-05-13T13:17:54.338Z,21.88
2023-05-13T13:20:23.518Z,22.04
2023-05-13T13:22:50.760Z,22.02
2023-05-13T13:25:18.717Z,21.94
2023-05-13T13:27:45.591Z,22.48
2023-05-13T13:30:13.149Z,22.76
2023-05-13T13:32:42.964Z,22.97
2023-05-13T13:35:10.414Z,23.64
2023-05-13T13:37:38.050Z,23.21
2023-05-13T13:40:05.059Z,22.57
2023-05-13T13:42:43.246Z,22.07
2023-05-13T13:45:18.999Z,22.98
2023-05-13T13:47:45.834Z,22.94
2023-05-13T13:50:16.267Z,22.83
2023-05-13T13:52:43.089Z,22.44
2023-05-13T13:55:11.800Z,23.00
2023-05-13T13:57:39.078Z,23.24
2023-05-13T14:00:08.720Z,23.14
2023-05-13T14:02:37.470Z,22.85
2023-05-13T14:05:07.239Z,22.70
2023-05-13T14:07:37.427Z,23.51
2023-05-13T14:10:05.482Z,23.60
2023-05-13T14:12:35.941Z,23.82
2023-05-13T14:15:06.860Z,22.92
2023-05-13T14:17:33.863Z,22.81
2023-05-13T14:20:00.726Z,22.81
2023-05-13T14:22:27.944Z,23.25
2023-05-13T14:24:54.862Z,22.85
2023-05-13T14:27:24.479Z,22.76
2023-05-13T14:29:51.528Z,22.91
2023-05-13T14:32:18.164Z,23.57
2023-05-13T14:34:48.039Z,23.82
2023-05-13T14:37:14.538Z,23.85
2023-05-13T14:39:42.440Z,22.69
2023-05-13T14:42:11.436Z,23.02
2023-05-13T14:44:43.610Z,22.91
2023-05-13T14:47:10.438Z,22.75
2023-05-13T14:49:39.030Z,23.26
2023-05-13T14:52:10.187Z,23.16
2023-05-13T14:54:38.038Z,22.55
2023-05-13T14:57:07.061Z,22.17
2023-05-13T14:59:39.012Z,22.20
2023-05-13T15:02:11.140Z,22.66
2023-05-13T15:04:39.818Z,22.16
2023-05-13T15:07:06.949Z,21.63
2023-05-13T15:09:33.418Z,21.78
2023-05-13T15:12:00.951Z,21.62
2023-05-13T15:14:28.579Z,22.10
2023-05-13T15:17:10.947Z,21.62
2023-05-13T15:19:38.754Z,21.58
2023-05-13T15:22:09.002Z,21.21
2023-05-13T15:24:37.515Z,20.92
2023-05-13T15:27:05.968Z,21.05
2023-05-13T15:29:36.290Z,21.14
2023-05-13T15:32:03.715Z,21.04
2023-05-13T15:34:30.612Z,20.81
2023-05-13T15:36:58.791Z,20.63
2023-05-13T15:39:27.073Z,20.35
2023-05-13T15:42:00.421Z,20.44
2023-05-13T15:44:27.926Z,20.72
2023-05-13T15:46:56.648Z,20.99
2023-05-13T15:49:23.294Z,21.16
2023-05-13T15:51:50.114Z,21.12
2023-05-13T15:54:17.378Z,21.04
2023-05-13T15:56:44.643Z,21.12
2023-05-13T15:59:21.250Z,20.98
2023-05-13T16:01:50.554Z,20.84
2023-05-13T16:04:18.140Z,20.77
2023-05-13T16:06:44.631Z,20.61
2023-05-13T16:09:13.101Z,20.21
2023-05-13T16:11:45.314Z,20.23
2023-05-13T16:14:12.613Z,20.28
2023-05-13T16:16:40.398Z,20.24
2023-05-13T16:19:08.766Z,19.97
2023-05-13T16:21:41.972Z,19.78
2023-05-13T16:24:09.078Z,19.67
2023-05-13T16:26:37.426Z,19.71
2023-05-13T16:29:06.920Z,19.80
2023-05-13T16:31:34.934Z,19.80
2023-05-13T16:34:04.407Z,19.83
2023-05-13T16:36:33.874Z,19.63
2023-05-13T16:39:05.614Z,19.51
2023-05-13T16:41:35.286Z,19.43
2023-05-13T16:44:03.726Z,19.55
2023-05-13T16:46:35.426Z,19.49
2023-05-13T16:49:04.440Z,19.43
2023-05-13T16:51:31.024Z,19.47
2023-05-13T16:53:58.630Z,19.27
2023-05-13T16:56:26.692Z,19.31
2023-05-13T16:58:53.663Z,19.28
2023-05-13T17:01:23.170Z,19.17
2023-05-13T17:03:50.812Z,19.16
2023-05-13T17:06:17.621Z,19.03
2023-05-13T17:08:44.126Z,18.97
2023-05-13T17:11:16.703Z,18.91
2023-05-13T17:13:45.732Z,18.84
2023-05-13T17:16:13.583Z,18.85
2023-05-13T17:18:40.084Z,18.75
2023-05-13T17:21:07.018Z,18.74
2023-05-13T17:23:35.720Z,18.60
2023-05-13T17:26:02.227Z,18.57
2023-05-13T17:28:30.890Z,18.56
2023-05-13T17:30:58.285Z,18.50
2023-05-13T17:33:25.741Z,18.56
2023-05-13T17:35:52.500Z,18.46
2023-05-13T17:38:22.829Z,18.39
2023-05-13T17:40:51.643Z,18.29
2023-05-13T17:43:20.005Z,18.26
2023-05-13T17:45:46.589Z,18.06
2023-05-13T17:48:15.810Z,17.99
2023-05-13T17:50:45.504Z,18.03
2023-05-13T17:53:11.989Z,17.98
2023-05-13T17:55:38.452Z,18.06
2023-05-13T17:58:07.034Z,17.90
2023-05-13T18:00:38.702Z,17.78
2023-05-13T18:03:05.303Z,17.77
2023-05-13T18:05:38.229Z,17.72
2023-05-13T18:08:08.753Z,17.59
2023-05-13T18:10:40.059Z,17.60
2023-05-13T18:13:07.879Z,17.47
2023-05-13T18:15:42.009Z,17.47
2023-05-13T18:18:11.396Z,17.31
2023-05-13T18:20:42.456Z,17.34
2023-05-13T18:23:12.078Z,17.21
2023-05-13T18:25:55.877Z,16.91
2023-05-13T18:28:23.440Z,16.69
2023-05-13T18:30:53.082Z,16.28
2023-05-13T18:33:20.412Z,16.10
2023-05-13T18:35:55.298Z,15.94
2023-05-13T18:38:23.730Z,15.67
2023-05-13T18:40:50.868Z,15.42
2023-05-13T18:43:18.799Z,15.31
2023-05-13T18:45:48.999Z,15.34
2023-05-13T18:48:18.668Z,15.07
2023-05-13T18:50:49.498Z,15.21
2023-05-13T18:53:16.969Z,14.92
2023-05-13T18:55:44.927Z,14.82
2023-05-13T18:58:11.669Z,14.83
2023-05-13T19:00:39.245Z,14.76
2023-05-13T19:03:08.805Z,14.50
2023-05-13T19:05:35.807Z,14.59
2023-05-13T19:08:03.373Z,14.54
2023-05-13T19:10:29.873Z,14.15
2023-05-13T19:12:56.872Z,14.25
2023-05-13T19:15:25.129Z,14.28
2023-05-13T19:17:52.919Z,14.14
2023-05-13T19:20:21.196Z,14.10
2023-05-13T19:22:48.822Z,14.20
2023-05-13T19:25:20.737Z,14.19
2023-05-13T19:27:49.490Z,14.26
2023-05-13T19:30:21.055Z,14.11
2023-05-13T19:32:48.934Z,14.01
2023-05-13T19:35:19.445Z,14.10
2023-05-13T19:37:46.528Z,14.09
2023-05-13T19:40:13.047Z,14.26
2023-05-13T19:42:39.637Z,14.00
2023-05-13T19:45:06.656Z,14.11
2023-05-13T19:47:35.376Z,14.15
2023-05-13T19:50:03.764Z,14.41
2023-05-13T19:52:30.773Z,14.47
2023-05-13T19:54:57.322Z,14.45
2023-05-13T19:57:24.847Z,14.53
2023-05-13T19:59:52.004Z,14.60
2023-05-13T20:02:21.618Z,14.61
2023-05-13T20:04:50.910Z,14.64
2023-05-13T20:07:17.757Z,14.58
2023-05-13T20:09:47.647Z,14.51
2023-05-13T20:12:15.147Z,14.45
2023-05-13T20:14:43.318Z,14.38
2023-05-13T20:17:10.342Z,14.27
2023-05-13T20:19:37.003Z,14.24
2023-05-13T20:22:04.838Z,13.84
2023-05-13T20:24:31.615Z,13.44
2023-05-13T20:26:58.096Z,13.37
2023-05-13T20:29:24.914Z,13.50
2023-05-13T20:31:51.655Z,13.22
2023-05-13T20:34:18.382Z,13.08
2023-05-13T20:36:46.438Z,13.00
2023-05-13T20:39:14.797Z,12.86
2023-05-13T20:41:41.355Z,12.73
2023-05-13T20:44:07.841Z,12.70
2023-05-13T20:46:37.492Z,12.63
2023-05-13T20:49:04.381Z,12.64
2023-05-13T20:51:31.003Z,12.68
2023-05-13T20:53:57.555Z,12.44
2023-05-13T20:56:24.063Z,12.61
2023-05-13T20:58:51.833Z,12.56
2023-05-13T21:01:19.779Z,12.55
2023-05-13T21:03:54.616Z,12.34
2023-05-13T21:06:21.128Z,12.55
2023-05-13T21:08:47.735Z,12.37
2023-05-13T21:11:16.372Z,12.28
2023-05-13T21:13:43.052Z,12.23
2023-05-13T21:16:10.841Z,12.41
2023-05-13T21:18:41.708Z,12.38
2023-05-13T21:21:12.309Z,12.24
2023-05-13T21:23:40.579Z,12.24
2023-05-13T21:26:07.505Z,12.35
2023-05-13T21:28:35.902Z,12.07
2023-05-13T21:31:02.431Z,11.93
2023-05-13T21:33:29.320Z,12.19
2023-05-13T21:35:56.524Z,12.29
2023-05-13T21:38:24.366Z,12.34
2023-05-13T21:40:52.027Z,12.25
2023-05-13T21:43:18.516Z,12.33
2023-05-13T21:45:51.440Z,12.23
2023-05-13T21:48:19.607Z,12.30
2023-05-13T21:50:46.370Z,12.30
2023-05-13T21:53:13.742Z,12.22
2023-05-13T21:55:43.038Z,12.14
2023-05-13T21:58:11.371Z,12.08
2023-05-13T22:00:38.138Z,12.13
2023-05-13T22:03:08.656Z,11.97
2023-05-13T22:05:46.940Z,11.83
2023-05-13T22:08:14.792Z,11.78
2023-05-13T22:10:42.898Z,12.08
2023-05-13T22:13:09.975Z,12.05
2023-05-13T22:15:45.575Z,12.15
2023-05-13T22:18:14.473Z,11.97
2023-05-13T22:20:42.701Z,11.88
2023-05-13T22:23:16.674Z,11.78
2023-05-13T22:25:46.467Z,11.75
2023-05-13T22:28:13.070Z,11.87
2023-05-13T22:30:39.578Z,11.76
2023-05-13T22:33:07.862Z,11.95
2023-05-13T22:35:36.498Z,11.89
2023-05-13T22:38:04.144Z,11.88
2023-05-13T22:40:30.862Z,11.94
2023-05-13T22:42:57.342Z,11.83
2023-05-13T22:45:23.809Z,11.75
2023-05-13T22:47:51.411Z,11.84
2023-05-13T22:50:19.004Z,11.89
2023-05-13T22:52:46.695Z,11.70
2023-05-13T22:55:13.532Z,11.57
2023-05-13T22:57:41.061Z,11.41
2023-05-13T23:00:10.750Z,11.45
2023-05-13T23:02:37.256Z,11.54
2023-05-13T23:05:05.387Z,11.58
2023-05-13T23:07:31.904Z,11.54
2023-05-13T23:10:06.215Z,11.37
2023-05-13T23:12:33.351Z,11.48
2023-05-13T23:15:00.327Z,11.39
2023-05-13T23:17:30.871Z,11.40
2023-05-13T23:20:01.082Z,11.54
2023-05-13T23:22:27.647Z,11.45
2023-05-13T23:24:54.230Z,11.29
2023-05-13T23:27:20.789Z,11.29
2023-05-13T23:29:49.292Z,10.99
2023-05-13T23:32:17.177Z,11.14
2023-05-13T23:34:45.517Z,11.16
2023-05-13T23:37:13.406Z,11.15
2023-05-13T23:39:41.162Z,11.31
2023-05-13T23:42:08.925Z,11.13
2023-05-13T23:44:37.296Z,11.38
2023-05-13T23:47:07.908Z,11.44
2023-05-13T23:49:37.597Z,11.55
2023-05-13T23:52:05.452Z,11.64
2023-05-13T23:54:33.381Z,11.59
2023-05-13T23:57:00.457Z,11.33
2023-05-13T23:59:27.183Z,11.09
